Time;durP1;ratioP1;P1;durP2;ratioP2;P2;SDS_P1;SDS_P2;PMS_P1;PMS_P2;Temp;Humidity;BMP_temperature;BMP_pressure;BME280_temperature;BME280_humidity;BME280_pressure;Samples;Min_cycle;Max_cycle;Signal;HPM_P1;HPM_P2
2022/12/14 00:02:11;;;;;;;123.40;41.10;;;;;;;-6.31;79.49;100397.95;106749;1240;97759;-71
2022/12/14 00:04:37;;;;;;;126.10;41.40;;;;;;;-6.31;79.51;100397.25;106705;1234;97821;-72
2022/12/14 00:07:02;;;;;;;134.20;42.70;;;;;;;-6.34;79.38;100391.64;106699;1234;138747;-71
2022/12/14 00:09:27;;;;;;;123.90;41.40;;;;;;;-6.36;79.49;100394.54;106838;1251;97710;-71
2022/12/14 00:11:53;;;;;;;126.10;40.30;;;;;;;-6.38;79.47;100397.45;106698;1250;138935;-71
2022/12/14 00:14:18;;;;;;;141.00;40.80;;;;;;;-6.40;79.44;100395.33;106846;1235;99435;-71
2022/12/14 00:16:43;;;;;;;138.90;42.50;;;;;;;-6.40;79.51;100392.20;106702;1235;97658;-71
2022/12/14 00:19:10;;;;;;;123.60;40.60;;;;;;;-6.41;79.53;100389.23;106547;1243;138893;-71
2022/12/14 00:21:35;;;;;;;132.70;41.60;;;;;;;-6.43;79.32;100385.89;106860;1243;97695;-71
2022/12/14 00:24:01;;;;;;;144.00;42.40;;;;;;;-6.45;79.48;100376.79;106759;1240;139185;-71
2022/12/14 00:26:29;;;;;;;140.50;43.60;;;;;;;-6.46;79.50;100380.08;106846;1237;98083;-71
2022/12/14 00:28:55;;;;;;;131.20;42.40;;;;;;;-6.46;79.74;100384.95;106808;1241;106821;-71
2022/12/14 00:31:22;;;;;;;137.20;42.70;;;;;;;-6.48;79.72;100380.21;106652;1243;138934;-71
2022/12/14 00:33:51;;;;;;;144.00;40.60;;;;;;;-6.48;79.71;100381.95;106680;1248;98810;-71
2022/12/14 00:36:17;;;;;;;135.60;42.00;;;;;;;-6.49;79.78;100374.45;106629;1241;138913;-70
2022/12/14 00:38:43;;;;;;;146.80;41.40;;;;;;;-6.50;79.67;100373.90;106799;1241;96138;-71
2022/12/14 00:41:10;;;;;;;131.40;41.50;;;;;;;-6.52;79.65;100371.79;106675;1235;97719;-71
2022/12/14 00:43:36;;;;;;;132.60;43.90;;;;;;;-6.53;79.68;100375.23;106760;1242;138739;-71
2022/12/14 00:46:01;;;;;;;107.20;35.10;;;;;;;-6.56;79.60;100377.45;106709;1238;97667;-70
2022/12/14 00:48:27;;;;;;;131.90;40.80;;;;;;;-6.58;79.81;100380.02;106558;1238;138889;-72
2022/12/14 00:50:54;;;;;;;133.30;40.90;;;;;;;-6.60;79.64;100373.36;106818;1247;95489;-72
2022/12/14 00:53:20;;;;;;;113.80;39.70;;;;;;;-6.60;79.71;100370.41;106874;1247;97730;-73
2022/12/14 00:55:47;;;;;;;130.00;40.30;;;;;;;-6.60;79.85;100364.66;106590;1242;138540;-72
2022/12/14 00:58:15;;;;;;;133.00;36.90;;;;;;;-6.60;79.96;100367.63;106666;1239;97741;-71
2022/12/14 01:00:43;;;;;;;115.80;36.00;;;;;;;-6.61;79.98;100366.40;106454;1238;139934;-72
2022/12/14 01:03:09;;;;;;;113.60;35.80;;;;;;;-6.63;79.90;100365.30;106585;1245;97650;-72
2022/12/14 01:05:36;;;;;;;111.00;37.60;;;;;;;-6.63;79.97;100361.83;106608;1233;138881;-72
2022/12/14 01:08:02;;;;;;;109.10;34.20;;;;;;;-6.64;80.01;100358.51;106885;1236;97753;-72
2022/12/14 01:10:27;;;;;;;115.50;37.00;;;;;;;-6.64;79.91;100352.95;106667;1241;107696;-73
2022/12/14 01:12:52;;;;;;;120.00;35.40;;;;;;;-6.65;80.02;100355.35;106577;1237;139164;-73
2022/12/14 01:15:18;;;;;;;119.40;37.10;;;;;;;-6.66;80.13;100361.23;106665;1237;97690;-73
2022/12/14 01:17:43;;;;;;;108.00;35.60;;;;;;;-6.66;80.07;100362.11;106522;1238;139251;-73
2022/12/14 01:20:09;;;;;;;98.30;34.30;;;;;;;-6.66;80.24;100364.37;106758;1230;96703;-73
2022/12/14 01:22:36;;;;;;;119.60;36.40;;;;;;;-6.66;80.13;100365.58;106839;1245;96367;-73
2022/12/14 01:25:02;;;;;;;117.10;33.60;;;;;;;-6.66;80.19;100361.58;106634;1243;138818;-73
2022/12/14 01:27:27;;;;;;;98.20;31.30;;;;;;;-6.67;80.23;100358.60;106676;1242;97597;-73
2022/12/14 01:29:52;;;;;;;111.20;33.80;;;;;;;-6.68;80.19;100358.75;106595;1243;138966;-72
2022/12/14 01:32:18;;;;;;;99.40;32.10;;;;;;;-6.70;80.35;100364.27;106750;1243;97735;-73
2022/12/14 01:34:43;;;;;;;90.10;30.50;;;;;;;-6.70;80.34;100363.41;106851;1240;95095;-73
2022/12/14 01:37:08;;;;;;;101.60;32.60;;;;;;;-6.71;80.38;100354.87;106570;1235;138747;-71
2022/12/14 01:39:34;;;;;;;98.50;32.40;;;;;;;-6.73;80.39;100342.49;106754;1238;97612;-71
2022/12/14 01:41:59;;;;;;;91.10;31.10;;;;;;;-6.77;80.29;100338.25;106756;1238;138789;-71
2022/12/14 01:44:25;;;;;;;87.00;29.60;;;;;;;-6.78;80.39;100343.08;106751;1251;97608;-71
2022/12/14 01:47:01;;;;;;;82.30;26.40;;;;;;;-6.79;80.46;100340.63;106795;1235;98735;-71
2022/12/14 01:49:32;;;;;;;80.20;27.30;;;;;;;-6.79;80.45;100334.89;106503;1245;138525;-71
2022/12/14 01:52:06;;;;;;;91.70;28.90;;;;;;;-6.81;80.43;100330.86;106739;1227;110027;-71
2022/12/14 01:54:35;;;;;;;87.90;28.10;;;;;;;-6.81;80.55;100326.16;106695;1243;138835;-71
2022/12/14 01:57:01;;;;;;;84.00;29.00;;;;;;;-6.82;80.61;100320.77;106828;1229;106944;-71
2022/12/14 01:59:32;;;;;;;83.30;29.10;;;;;;;-6.81;80.59;100322.33;106764;1235;97586;-72
2022/12/14 02:02:02;;;;;;;78.50;27.40;;;;;;;-6.81;80.65;100320.26;106714;1243;95119;-71
2022/12/14 02:04:28;;;;;;;85.80;27.70;;;;;;;-6.81;80.60;100319.91;106782;1238;110148;-71
2022/12/14 02:06:54;;;;;;;83.60;29.20;;;;;;;-6.82;80.63;100317.98;106596;1246;138814;-71
2022/12/14 02:09:25;;;;;;;79.30;27.90;;;;;;;-6.83;80.62;100322.64;106744;1235;97725;-71
2022/12/14 02:12:01;;;;;;;79.20;26.70;;;;;;;-6.85;80.61;100321.39;106517;1231;138690;-71
2022/12/14 02:14:26;;;;;;;80.40;27.50;;;;;;;-6.86;80.68;100319.29;106630;1237;110815;-71
2022/12/14 02:16:54;;;;;;;80.90;26.20;;;;;;;-6.88;80.64;100323.08;106698;1235;97594;-72
2022/12/14 02:19:20;;;;;;;83.70;28.30;;;;;;;-6.90;80.66;100323.73;106615;1245;138569;-71
2022/12/14 02:22:17;;;;;;;76.70;28.20;;;;;;;-6.90;80.85;100324.08;106709;1236;97596;-71
2022/12/14 02:25:07;;;;;;;75.70;27.60;;;;;;;-6.91;80.77;100320.76;106611;1243;139349;-72
2022/12/14 02:27:41;;;;;;;80.10;26.90;;;;;;;-6.91;80.69;100322.31;106886;1251;98861;-71
2022/12/14 02:30:24;;;;;;;81.80;27.30;;;;;;;-6.91;80.88;100325.97;106640;1242;138802;-71
2022/12/14 02:33:00;;;;;;;82.90;27.00;;;;;;;-6.91;80.96;100321.98;106803;1227;97694;-71
2022/12/14 02:35:58;;;;;;;84.20;27.90;;;;;;;-6.91;80.91;100317.45;106843;1240;97905;-72
2022/12/14 02:38:39;;;;;;;76.00;26.40;;;;;;;-6.94;80.85;100323.13;106584;1232;111177;-72
2022/12/14 02:41:12;;;;;;;89.70;29.10;;;;;;;-6.94;80.82;100324.69;106707;1235;98855;-72
2022/12/14 02:43:56;;;;;;;81.00;27.60;;;;;;;-6.96;80.90;100323.78;106747;1245;138592;-71
2022/12/14 02:46:46;;;;;;;96.10;30.00;;;;;;;-6.97;80.93;100319.74;106683;1236;97691;-72
2022/12/14 02:49:36;;;;;;;87.80;31.00;;;;;;;-6.99;80.92;100320.58;106539;1231;140359;-72
2022/12/14 02:52:13;;;;;;;89.40;29.80;;;;;;;-6.99;80.95;100318.14;106566;1237;112160;-72
2022/12/14 02:54:49;;;;;;;91.30;31.90;;;;;;;-7.00;81.04;100315.35;106598;1237;138904;-72
2022/12/14 02:57:21;;;;;;;95.20;32.10;;;;;;;-7.00;80.90;100320.02;106755;1237;106852;-72
2022/12/14 02:59:51;;;;;;;99.20;32.70;;;;;;;-7.01;81.05;100316.36;106569;1229;139006;-72
2022/12/14 03:02:17;;;;;;;89.70;29.80;;;;;;;-7.03;81.03;100315.45;106863;1229;99029;-72
2022/12/14 03:04:47;;;;;;;96.70;30.90;;;;;;;-7.04;80.97;100311.42;106748;1235;97589;-72
2022/12/14 03:07:34;;;;;;;103.90;33.60;;;;;;;-7.06;81.04;100312.08;106670;1238;138807;-72
2022/12/14 03:10:08;;;;;;;93.00;33.70;;;;;;;-7.07;81.04;100308.41;106624;1228;107765;-71
2022/12/14 03:12:38;;;;;;;98.70;31.80;;;;;;;-7.10;81.29;100305.05;106456;1235;138815;-72
2022/12/14 03:15:06;;;;;;;72.10;22.40;;;;;;;-7.11;81.19;100303.82;106628;1235;96787;-72
2022/12/14 03:17:33;;;;;;;101.80;33.90;;;;;;;-7.13;81.04;100303.61;106768;1235;112165;-72
2022/12/14 03:20:08;;;;;;;98.70;30.80;;;;;;;-7.15;81.11;100306.33;106576;1246;138833;-72
2022/12/14 03:22:48;;;;;;;95.10;33.40;;;;;;;-7.16;81.07;100309.44;106895;1249;108666;-72
2022/12/14 03:25:24;;;;;;;104.40;34.70;;;;;;;-7.17;81.11;100310.27;106605;1243;138820;-71
2022/12/14 03:28:05;;;;;;;99.40;33.10;;;;;;;-7.18;81.22;100307.66;106753;1235;97701;-72
2022/12/14 03:30:35;;;;;;;93.40;30.70;;;;;;;-7.19;81.09;100308.16;106537;1236;139147;-72
2022/12/14 03:33:05;;;;;;;106.90;35.50;;;;;;;-7.19;81.32;100308.15;106675;1239;100244;-72
2022/12/14 03:35:38;;;;;;;73.50;23.60;;;;;;;-7.20;81.23;100310.92;106574;1239;106692;-72
2022/12/14 03:38:14;;;;;;;93.60;29.70;;;;;;;-7.23;81.25;100305.64;106635;1236;97758;-72
2022/12/14 03:41:12;;;;;;;102.70;33.60;;;;;;;-7.23;81.28;100309.12;106744;1237;97734;-74
2022/12/14 03:44:09;;;;;;;108.00;33.10;;;;;;;-7.23;81.29;100305.10;106635;1243;139346;-71
2022/12/14 03:46:40;;;;;;;97.50;32.80;;;;;;;-7.23;81.24;100299.73;106749;1243;99009;-72
2022/12/14 03:49:19;;;;;;;102.20;32.20;;;;;;;-7.25;81.25;100293.79;106610;1236;138486;-72
2022/12/14 03:51:59;;;;;;;101.40;34.00;;;;;;;-7.26;81.34;100291.86;106704;1227;96485;-72
2022/12/14 03:54:46;;;;;;;96.00;31.10;;;;;;;-7.27;81.31;100288.70;106549;1235;138784;-72
2022/12/14 03:57:41;;;;;;;96.60;32.30;;;;;;;-7.28;81.35;100287.98;106761;1244;110818;-71
2022/12/14 04:00:09;;;;;;;93.20;31.60;;;;;;;-7.30;81.44;100288.98;106682;1243;139257;-72
2022/12/14 04:02:49;;;;;;;102.70;32.10;;;;;;;-7.31;81.40;100284.45;106699;1243;108554;-72
2022/12/14 04:05:34;;;;;;;100.30;31.70;;;;;;;-7.31;81.43;100282.00;106638;1243;97686;-72
2022/12/14 04:08:15;;;;;;;96.10;30.10;;;;;;;-7.32;81.45;100279.91;106523;1237;138593;-73
2022/12/14 04:19:20;;;;;;;95.90;31.20;;;;;;;-7.36;81.44;100292.14;106551;1235;138872;-73
2022/12/14 04:21:57;;;;;;;95.30;31.70;;;;;;;-7.37;81.42;100286.90;106697;1230;97647;-73
2022/12/14 04:27:35;;;;;;;82.80;27.90;;;;;;;-7.39;81.65;100279.23;106719;1243;99281;-72
2022/12/14 04:30:03;;;;;;;89.80;30.30;;;;;;;-7.40;81.44;100279.73;106551;1244;139489;-72
2022/12/14 04:32:57;;;;;;;88.30;29.60;;;;;;;-7.42;81.47;100281.06;106582;1245;97780;-73
2022/12/14 04:35:25;;;;;;;86.60;30.00;;;;;;;-7.45;81.40;100275.27;106718;1237;97746;-72
2022/12/14 04:38:06;;;;;;;86.90;29.10;;;;;;;-7.46;81.55;100272.98;106585;1231;140081;-72
2022/12/14 04:40:39;;;;;;;89.30;28.60;;;;;;;-7.47;81.56;100268.80;106663;1230;99281;-72
2022/12/14 04:43:08;;;;;;;82.90;25.90;;;;;;;-7.49;81.30;100265.80;106543;1236;138560;-72
2022/12/14 04:45:40;;;;;;;87.60;29.20;;;;;;;-7.51;81.41;100263.51;106733;1236;98438;-72
2022/12/14 04:48:18;;;;;;;89.20;30.00;;;;;;;-7.53;81.43;100264.16;106510;1243;139907;-72
2022/12/14 04:50:48;;;;;;;88.90;29.60;;;;;;;-7.54;81.62;100261.70;106669;1237;110729;-72
2022/12/14 04:53:20;;;;;;;83.90;27.60;;;;;;;-7.56;81.52;100256.48;106786;1236;99595;-71
2022/12/14 04:55:53;;;;;;;76.70;27.70;;;;;;;-7.56;81.71;100259.05;106605;1235;138586;-72
2022/12/14 04:58:25;;;;;;;87.20;26.90;;;;;;;-7.57;81.41;100256.61;106686;1237;95686;-72
2022/12/14 05:01:24;;;;;;;89.30;29.90;;;;;;;-7.57;81.63;100254.70;106604;1230;138603;-72
2022/12/14 05:04:11;;;;;;;76.60;27.80;;;;;;;-7.58;81.40;100255.02;106756;1235;112307;-72
2022/12/14 05:06:47;;;;;;;88.70;29.10;;;;;;;-7.62;81.53;100252.52;106657;1229;138639;-72
2022/12/14 05:09:18;;;;;;;74.80;26.20;;;;;;;-7.64;81.61;100255.60;106746;1241;108098;-71
2022/12/14 05:12:23;;;;;;;90.30;28.70;;;;;;;-7.64;81.58;100253.50;106657;1235;139235;-72
2022/12/14 05:14:53;;;;;;;74.80;24.10;;;;;;;-7.64;81.60;100253.33;106677;1243;96027;-72
2022/12/14 05:17:19;;;;;;;87.50;30.10;;;;;;;-7.65;81.59;100251.56;106721;1239;110447;-73
2022/12/14 05:19:49;;;;;;;88.60;27.10;;;;;;;-7.66;81.63;100246.34;106662;1247;138931;-72
2022/12/14 05:22:14;;;;;;;75.80;26.80;;;;;;;-7.66;81.68;100242.70;106681;1236;107004;-72
2022/12/14 05:24:40;;;;;;;79.20;25.80;;;;;;;-7.66;81.63;100236.09;106452;1232;138865;-72
2022/12/14 05:27:05;;;;;;;78.70;27.00;;;;;;;-7.67;81.65;100233.48;106845;1243;97818;-72
2022/12/14 05:29:31;;;;;;;85.60;27.30;;;;;;;-7.68;81.56;100233.80;106764;1244;98124;-72
2022/12/14 05:31:56;;;;;;;75.90;26.30;;;;;;;-7.68;81.74;100232.40;106526;1236;139283;-73
2022/12/14 05:34:21;;;;;;;75.90;26.50;;;;;;;-7.70;81.62;100232.73;106699;1243;95937;-72
2022/12/14 05:36:47;;;;;;;75.20;25.00;;;;;;;-7.71;81.74;100225.05;106614;1229;138559;-73
2022/12/14 05:39:14;;;;;;;82.90;27.60;;;;;;;-7.71;81.70;100224.01;106779;1227;97593;-72
2022/12/14 05:41:39;;;;;;;79.80;27.80;;;;;;;-7.73;81.74;100219.11;106443;1243;138810;-73
2022/12/14 05:44:04;;;;;;;72.70;25.30;;;;;;;-7.74;81.68;100220.31;106784;1235;97931;-73
2022/12/14 05:46:30;;;;;;;78.50;23.50;;;;;;;-7.76;81.53;100222.69;106752;1235;97674;-73
2022/12/14 05:48:55;;;;;;;80.70;26.50;;;;;;;-7.77;81.61;100222.66;106615;1235;139052;-73
2022/12/14 05:51:20;;;;;;;79.30;24.80;;;;;;;-7.77;81.68;100224.23;106691;1238;97700;-74
2022/12/14 05:53:46;;;;;;;70.20;25.60;;;;;;;-7.77;81.58;100223.19;106643;1227;138712;-73
2022/12/14 05:56:11;;;;;;;63.60;23.40;;;;;;;-7.77;81.73;100221.80;106718;1246;97689;-73
2022/12/14 05:58:38;;;;;;;73.30;23.50;;;;;;;-7.77;81.66;100224.75;106645;1235;96931;-73
2022/12/14 06:01:06;;;;;;;67.80;25.40;;;;;;;-7.78;81.82;100220.39;106564;1236;138534;-74
2022/12/14 06:03:31;;;;;;;65.20;24.10;;;;;;;-7.78;81.77;100220.38;106630;1235;110314;-73
2022/12/14 06:06:05;;;;;;;72.40;23.90;;;;;;;-7.79;81.81;100221.92;106706;1227;138855;-74
2022/12/14 06:08:36;;;;;;;73.80;24.40;;;;;;;-7.80;81.69;100222.10;106612;1229;109057;-73
2022/12/14 06:11:11;;;;;;;74.30;25.40;;;;;;;-7.81;81.72;100218.09;106715;1235;98429;-74
2022/12/14 06:13:38;;;;;;;74.40;25.80;;;;;;;-7.82;81.81;100217.72;106705;1227;138487;-73
2022/12/14 06:16:13;;;;;;;66.80;23.60;;;;;;;-7.83;81.58;100218.92;106759;1235;97685;-74
2022/12/14 06:18:52;;;;;;;65.30;21.90;;;;;;;-7.84;81.69;100220.09;106620;1229;138574;-73
2022/12/14 06:21:21;;;;;;;72.60;24.40;;;;;;;-7.85;81.67;100217.31;106632;1228;107603;-73
2022/12/14 06:23:46;;;;;;;73.40;23.40;;;;;;;-7.86;81.77;100217.98;106551;1232;139254;-73
2022/12/14 06:26:13;;;;;;;81.30;25.00;;;;;;;-7.88;81.86;100219.16;106779;1235;97704;-72
2022/12/14 06:28:38;;;;;;;74.40;25.30;;;;;;;-7.89;81.66;100220.18;106908;1245;97633;-74
2022/12/14 06:31:05;;;;;;;84.40;26.50;;;;;;;-7.90;81.94;100218.59;106681;1229;138764;-74
2022/12/14 06:33:34;;;;;;;85.40;27.20;;;;;;;-7.91;81.79;100217.52;106583;1235;97697;-72
2022/12/14 06:36:00;;;;;;;78.90;27.30;;;;;;;-7.91;81.83;100213.35;106412;1230;140581;-72
2022/12/14 06:38:26;;;;;;;75.30;26.20;;;;;;;-7.92;81.75;100211.77;107000;1236;97674;-72
2022/12/14 06:40:52;;;;;;;88.80;25.70;;;;;;;-7.93;81.87;100211.40;106813;1235;96400;-73
2022/12/14 06:43:17;;;;;;;74.80;25.70;;;;;;;-7.95;81.69;100212.92;106579;1252;138754;-73
2022/12/14 06:45:42;;;;;;;76.00;25.90;;;;;;;-7.95;81.89;100210.30;106759;1245;96387;-72
2022/12/14 06:48:08;;;;;;;83.60;28.20;;;;;;;-7.95;82.01;100211.19;106552;1232;138703;-76
2022/12/14 06:50:34;;;;;;;76.20;26.10;;;;;;;-7.95;82.03;100210.32;106611;1230;97696;-74
2022/12/14 06:53:00;;;;;;;75.50;25.20;;;;;;;-7.95;81.81;100214.46;106574;1245;97653;-73
2022/12/14 06:55:26;;;;;;;78.40;28.10;;;;;;;-7.96;81.79;100214.46;106612;1236;138562;-72
2022/12/14 06:57:53;;;;;;;81.90;27.30;;;;;;;-7.95;81.96;100214.29;106583;1230;99678;-72
2022/12/14 07:00:20;;;;;;;74.50;25.50;;;;;;;-7.95;81.99;100211.17;106511;1244;138865;-72
2022/12/14 07:02:46;;;;;;;72.70;26.90;;;;;;;-7.94;81.88;100206.70;106626;1236;97719;-74
2022/12/14 07:05:13;;;;;;;78.60;27.00;;;;;;;-7.93;81.90;100206.71;106521;1238;97628;-74
2022/12/14 07:07:38;;;;;;;76.00;26.20;;;;;;;-7.94;81.83;100201.85;106635;1227;138570;-72
2022/12/14 07:10:05;;;;;;;82.10;27.70;;;;;;;-7.93;81.90;100201.16;106547;1235;108364;-75
2022/12/14 07:12:30;;;;;;;76.50;27.80;;;;;;;-7.93;81.97;100200.13;106652;1246;138712;-74
2022/12/14 07:14:56;;;;;;;78.90;27.50;;;;;;;-7.93;81.83;100200.65;106832;1227;97741;-74
2022/12/14 07:17:21;;;;;;;83.00;27.10;;;;;;;-7.92;81.90;100195.99;106595;1237;99430;-77
2022/12/14 07:19:47;;;;;;;85.80;27.10;;;;;;;-7.91;81.98;100194.79;106624;1236;139282;-74
2022/12/14 07:22:12;;;;;;;83.60;28.40;;;;;;;-7.90;82.06;100194.48;106715;1235;97644;-75
2022/12/14 07:24:38;;;;;;;83.10;27.70;;;;;;;-7.88;81.94;100188.80;106480;1237;139251;-72
2022/12/14 07:27:04;;;;;;;81.20;27.40;;;;;;;-7.86;82.08;100187.63;106726;1235;97704;-78
2022/12/14 07:29:30;;;;;;;90.60;26.60;;;;;;;-7.85;81.74;100187.66;106807;1237;97734;-76
2022/12/14 07:31:55;;;;;;;81.50;29.30;;;;;;;-7.84;81.99;100188.70;106682;1251;138361;-78
2022/12/14 07:34:21;;;;;;;89.50;29.90;;;;;;;-7.83;82.07;100188.21;106548;1242;97697;-79
2022/12/14 07:36:49;;;;;;;80.20;29.60;;;;;;;-7.82;82.03;100185.11;106677;1246;138702;-79
2022/12/14 07:39:16;;;;;;;73.10;26.00;;;;;;;-7.80;82.06;100186.20;106852;1251;97711;-77
2022/12/14 07:41:43;;;;;;;74.90;26.10;;;;;;;-7.79;82.02;100185.86;106861;1246;139437;-75
2022/12/14 07:44:09;;;;;;;75.70;26.40;;;;;;;-7.76;82.11;100184.16;106669;1229;98485;-76
2022/12/14 07:46:35;;;;;;;85.70;29.00;;;;;;;-7.76;82.07;100180.03;106460;1236;97684;-74
2022/12/14 07:49:02;;;;;;;87.00;28.20;;;;;;;-7.72;81.92;100179.76;106492;1238;138765;-77
2022/12/14 07:51:36;;;;;;;84.10;27.50;;;;;;;-7.69;82.17;100174.97;106632;1238;97702;-78
2022/12/14 07:54:04;;;;;;;87.40;28.00;;;;;;;-7.66;82.05;100174.36;106455;1237;138716;-77
2022/12/14 07:56:33;;;;;;;72.00;25.30;;;;;;;-7.62;82.05;100171.84;106610;1245;99807;-78
2022/12/14 07:59:00;;;;;;;77.30;28.20;;;;;;;-7.60;82.18;100172.05;106745;1236;106806;-77
2022/12/14 08:01:31;;;;;;;76.30;26.20;;;;;;;-7.58;82.10;100165.85;106671;1237;138866;-75
2022/12/14 08:04:00;;;;;;;95.10;27.00;;;;;;;-7.56;82.18;100168.17;106785;1230;97590;-77
2022/12/14 08:06:28;;;;;;;73.90;26.90;;;;;;;-7.53;82.19;100169.09;106600;1235;139099;-78
2022/12/14 08:08:54;;;;;;;65.20;21.70;;;;;;;-7.49;82.22;100163.09;106670;1228;99587;-76
2022/12/14 08:11:21;;;;;;;75.80;26.80;;;;;;;-7.45;82.29;100155.52;106529;1234;98594;-75
2022/12/14 08:13:47;;;;;;;74.00;26.00;;;;;;;-7.42;82.23;100150.23;106478;1237;139166;-75
2022/12/14 08:16:15;;;;;;;92.80;27.70;;;;;;;-7.38;82.26;100145.09;106715;1237;98106;-76
2022/12/14 08:18:42;;;;;;;81.70;29.50;;;;;;;-7.35;82.30;100142.73;106420;1232;138483;-77
2022/12/14 08:21:10;;;;;;;74.80;26.10;;;;;;;-7.33;82.22;100138.09;106466;1232;97659;-74
2022/12/14 08:23:36;;;;;;;80.70;29.60;;;;;;;-7.30;82.27;100140.76;107162;1230;97706;-76
2022/12/14 08:26:03;;;;;;;74.90;27.10;;;;;;;-7.25;82.49;100138.77;106647;1232;138387;-77
2022/12/14 08:28:30;;;;;;;70.60;25.70;;;;;;;-7.21;82.36;100134.00;107060;1237;95573;-77
2022/12/14 08:30:56;;;;;;;85.60;28.40;;;;;;;-7.16;82.48;100134.08;107325;1245;139353;-75
2022/12/14 08:33:23;;;;;;;85.20;29.00;;;;;;;-7.12;82.42;100128.96;106609;1237;97612;-77
2022/12/14 08:35:48;;;;;;;85.90;27.60;;;;;;;-7.06;82.51;100125.41;106425;1237;139190;-77
2022/12/14 08:38:14;;;;;;;90.50;29.80;;;;;;;-7.01;82.63;100122.91;106711;1229;97701;-77
2022/12/14 08:40:40;;;;;;;79.70;27.60;;;;;;;-6.98;82.47;100121.07;106811;1230;97605;-77
2022/12/14 08:43:07;;;;;;;80.80;29.20;;;;;;;-6.91;82.68;100120.15;106543;1243;139201;-75
2022/12/14 08:45:34;;;;;;;91.90;29.30;;;;;;;-6.79;82.87;100123.31;106770;1235;97653;-74
2022/12/14 08:48:00;;;;;;;98.50;33.90;;;;;;;-6.60;83.07;100116.00;106490;1239;138750;-76
2022/12/14 08:50:26;;;;;;;91.40;32.20;;;;;;;-6.51;82.90;100113.20;106598;1246;97673;-75
2022/12/14 08:52:52;;;;;;;93.60;34.50;;;;;;;-6.47;82.87;100114.66;106787;1229;97746;-78
2022/12/14 08:55:19;;;;;;;77.70;29.50;;;;;;;-6.39;83.02;100111.84;106402;1237;139057;-78
2022/12/14 08:57:44;;;;;;;74.80;30.10;;;;;;;-6.33;82.93;100113.67;106545;1235;97619;-78
2022/12/14 09:00:10;;;;;;;91.70;30.60;;;;;;;-6.22;83.08;100112.80;106653;1236;138739;-76
2022/12/14 09:02:36;;;;;;;85.10;30.80;;;;;;;-6.20;82.88;100109.01;106785;1235;97644;-77
2022/12/14 09:05:02;;;;;;;91.40;31.20;;;;;;;-6.14;82.96;100103.17;107138;1249;97631;-76
2022/12/14 09:07:28;;;;;;;83.10;29.50;;;;;;;-6.08;82.91;100103.80;106668;1238;139046;-74
2022/12/14 09:09:53;;;;;;;113.60;38.50;;;;;;;-6.06;83.08;100101.22;106598;1240;107050;-75
2022/12/14 09:12:19;;;;;;;90.80;32.80;;;;;;;-6.00;83.07;100100.95;106385;1230;139591;-77
2022/12/14 09:14:48;;;;;;;144.10;40.70;;;;;;;-5.93;83.26;100098.61;106600;1234;98278;-76
2022/12/14 09:17:15;;;;;;;100.20;35.70;;;;;;;-5.86;83.10;100091.55;106656;1230;99505;-77
2022/12/14 09:19:40;;;;;;;97.00;33.80;;;;;;;-5.80;83.02;100083.98;106643;1236;139605;-78
2022/12/14 09:22:06;;;;;;;92.70;34.40;;;;;;;-5.81;82.88;100079.79;106663;1227;97608;-79
2022/12/14 09:24:31;;;;;;;95.90;34.60;;;;;;;-5.72;83.17;100076.27;106793;1237;138806;-75
2022/12/14 09:27:01;;;;;;;95.70;32.30;;;;;;;-5.60;83.19;100073.80;106558;1235;97975;-76
2022/12/14 09:29:27;;;;;;;90.00;34.00;;;;;;;-5.62;82.95;100068.38;106852;1233;108127;-77
2022/12/14 09:31:53;;;;;;;89.70;34.20;;;;;;;-5.61;82.99;100067.88;106314;1244;138770;-79
2022/12/14 09:34:19;;;;;;;102.20;38.40;;;;;;;-5.62;82.98;100068.73;106755;1238;97637;-75
2022/12/14 09:36:45;;;;;;;77.10;28.80;;;;;;;-5.64;83.00;100057.91;106517;1243;138841;-75
2022/12/14 09:39:13;;;;;;;98.70;37.10;;;;;;;-5.61;82.99;100054.64;106869;1235;98926;-75
2022/12/14 09:42:00;;;;;;;96.40;36.40;;;;;;;-5.59;82.84;100053.62;106394;1229;138910;-78
2022/12/14 09:44:56;;;;;;;88.30;30.60;;;;;;;-5.58;83.11;100048.77;106405;1229;100147;-76
2022/12/14 09:47:31;;;;;;;84.50;31.40;;;;;;;-5.51;83.08;100044.83;106619;1227;111591;-76
2022/12/14 09:50:00;;;;;;;98.00;34.10;;;;;;;-5.45;82.90;100038.29;106469;1229;138697;-75
2022/12/14 09:52:34;;;;;;;102.40;34.70;;;;;;;-5.40;83.17;100039.73;106515;1229;109584;-76
2022/12/14 09:55:04;;;;;;;83.00;33.70;;;;;;;-5.36;83.11;100034.55;106451;1229;139487;-82
2022/12/14 09:57:35;;;;;;;94.90;34.50;;;;;;;-5.32;83.13;100030.26;106479;1235;96957;-75
2022/12/14 10:00:01;;;;;;;82.80;31.20;;;;;;;-5.30;83.31;100029.92;106480;1236;138740;-79
2022/12/14 10:02:51;;;;;;;93.80;33.30;;;;;;;-5.26;83.27;100028.23;106584;1235;97620;-77
2022/12/14 10:05:28;;;;;;;95.10;33.20;;;;;;;-5.22;83.33;100023.91;106504;1235;107760;-77
2022/12/14 10:08:20;;;;;;;93.20;34.60;;;;;;;-5.16;83.15;100017.31;106497;1229;138558;-75
2022/12/14 10:10:54;;;;;;;86.30;32.70;;;;;;;-5.11;83.19;100012.48;106647;1235;97604;-74
2022/12/14 10:13:31;;;;;;;89.90;32.10;;;;;;;-5.08;83.35;100006.94;106874;1227;139067;-75
2022/12/14 10:16:14;;;;;;;71.10;27.20;;;;;;;-5.06;83.10;100002.61;106644;1227;100276;-76
2022/12/14 10:19:01;;;;;;;87.50;32.90;;;;;;;-5.01;83.32;100004.05;106458;1229;139473;-74
2022/12/14 10:21:40;;;;;;;98.50;35.90;;;;;;;-4.96;83.21;100004.09;106610;1229;97719;-76
2022/12/14 10:24:12;;;;;;;93.90;34.60;;;;;;;-4.92;83.30;100003.61;106708;1235;139228;-78
2022/12/14 10:26:48;;;;;;;103.10;33.70;;;;;;;-4.85;83.43;99994.94;106604;1236;110503;-75
2022/12/14 10:29:21;;;;;;;89.20;32.50;;;;;;;-4.78;83.55;99990.65;106540;1228;99471;-76
2022/12/14 10:31:51;;;;;;;87.80;33.00;;;;;;;-4.74;83.29;99986.67;106538;1229;138992;-76
2022/12/14 10:34:21;;;;;;;97.20;36.60;;;;;;;-4.71;83.55;99983.90;106651;1237;97643;-78
2022/12/14 10:37:02;;;;;;;104.70;38.10;;;;;;;-4.69;83.23;99984.10;106613;1227;139129;-76
2022/12/14 10:39:45;;;;;;;91.80;34.90;;;;;;;-4.64;83.61;99980.81;106695;1236;110491;-76
2022/12/14 10:42:31;;;;;;;92.30;34.60;;;;;;;-4.61;83.45;99974.73;106479;1230;138804;-76
2022/12/14 10:45:28;;;;;;;98.30;36.60;;;;;;;-4.54;83.38;99974.79;106823;1229;109278;-75
2022/12/14 10:48:05;;;;;;;98.80;37.10;;;;;;;-4.48;83.22;99973.77;106602;1229;138666;-75
2022/12/14 10:50:55;;;;;;;111.20;39.30;;;;;;;-4.43;83.52;99969.63;106580;1232;97875;-76
2022/12/14 10:53:36;;;;;;;80.20;31.20;;;;;;;-4.40;83.12;99963.36;106609;1229;111093;-74
2022/12/14 10:56:07;;;;;;;106.20;41.10;;;;;;;-4.38;83.30;99957.45;106556;1227;138286;-75
2022/12/14 10:58:32;;;;;;;;;;;;;;;-4.36;83.55;99954.84;106915;1239;109129;-75
2022/12/14 11:00:58;;;;;;;92.60;32.00;;;;;;;-4.32;83.41;99949.45;106490;1227;125226;-76
2022/12/14 11:03:23;;;;;;;106.40;40.10;;;;;;;-4.30;83.61;99948.42;106486;1229;97706;-76
2022/12/14 11:06:09;;;;;;;104.50;36.20;;;;;;;-4.26;83.36;99943.56;106446;1235;139144;-75
2022/12/14 11:08:48;;;;;;;99.10;38.30;;;;;;;-4.20;83.37;99939.23;106595;1232;106938;-76
2022/12/14 11:11:17;;;;;;;108.10;37.00;;;;;;;-4.16;83.60;99932.79;106618;1237;97770;-75
2022/12/14 11:13:55;;;;;;;97.90;32.20;;;;;;;-4.13;83.45;99929.84;106595;1237;140958;-75
2022/12/14 11:16:34;;;;;;;97.30;34.80;;;;;;;-4.09;83.41;99924.63;106677;1230;111750;-75
2022/12/14 11:19:01;;;;;;;122.20;41.10;;;;;;;-4.07;83.30;99920.45;106505;1234;138736;-76
2022/12/14 11:21:36;;;;;;;112.90;39.80;;;;;;;-4.06;83.35;99913.81;106512;1234;97701;-75
2022/12/14 11:24:02;;;;;;;112.80;42.10;;;;;;;-4.04;83.60;99907.55;106475;1230;138815;-77
2022/12/14 11:26:32;;;;;;;114.80;42.60;;;;;;;-4.00;83.28;99906.87;106535;1232;97661;-77